Time;durP1;ratioP1;P1;durP2;ratioP2;P2;SDS_P1;SDS_P2;PMS_P1;PMS_P2;Temp;Humidity;BMP_temperature;BMP_pressure;BME280_temperature;BME280_humidity;BME280_pressure;Samples;Min_cycle;Max_cycle;Signal;HPM_P1;HPM_P2
2023/11/17 00:11:34;;;;;;;67.30;29.40;;;;;;;5.45;100.00;99887.23;673936;1263;138776;-82
2023/11/17 00:27:12;;;;;;;49.00;23.20;;;;;;;5.41;100.00;99884.96;672585;1262;138833;-82
2023/11/17 00:42:49;;;;;;;59.80;27.50;;;;;;;5.25;100.00;99880.88;676776;1263;140300;-80
2023/11/17 00:58:26;;;;;;;59.10;27.50;;;;;;;5.17;100.00;99881.98;673552;1262;139800;-82
2023/11/17 01:14:03;;;;;;;56.60;26.20;;;;;;;5.08;100.00;99875.38;673035;1262;139719;-82
2023/11/17 01:29:41;;;;;;;59.20;29.30;;;;;;;5.04;100.00;99878.44;671794;1261;139657;-82
2023/11/17 01:45:21;;;;;;;56.10;27.30;;;;;;;5.07;100.00;99875.26;673031;1264;139034;-80
2023/11/17 02:00:58;;;;;;;98.50;42.00;;;;;;;4.94;100.00;99853.52;669707;1264;138854;-82
2023/11/17 02:16:36;;;;;;;;;;;;;;;4.81;100.00;99841.20;672079;1262;139727;-80
2023/11/17 02:32:16;;;;;;;47.50;23.90;;;;;;;4.83;100.00;99834.20;676810;1262;125050;-82
2023/11/17 02:47:57;;;;;;;46.30;23.90;;;;;;;4.73;100.00;99853.92;679844;1262;139585;-80
2023/11/17 03:03:46;;;;;;;52.90;23.40;;;;;;;4.85;100.00;99854.10;672965;1262;139636;-81
2023/11/17 03:19:23;;;;;;;49.60;23.60;;;;;;;4.87;100.00;99862.45;675929;1262;139206;-81
2023/11/17 03:35:01;;;;;;;58.70;28.40;;;;;;;4.92;100.00;99879.63;675409;1264;139692;-80
2023/11/17 03:50:38;;;;;;;50.80;21.00;;;;;;;4.86;100.00;99907.75;673275;1262;139367;-82
2023/11/17 04:06:15;;;;;;;43.60;18.60;;;;;;;4.87;100.00;99912.88;673654;1265;139109;-82
2023/11/17 04:21:52;;;;;;;60.70;25.90;;;;;;;4.78;100.00;99910.92;676495;1260;139336;-80
2023/11/17 04:37:29;;;;;;;42.30;18.80;;;;;;;4.70;100.00;99906.60;673993;1266;138917;-81
2023/11/17 04:53:06;;;;;;;40.60;17.80;;;;;;;4.67;100.00;99911.14;674405;1263;139499;-81
2023/11/17 05:08:43;;;;;;;61.90;25.40;;;;;;;4.81;100.00;99933.23;676223;1275;139235;-81
2023/11/17 05:24:21;;;;;;;33.50;15.20;;;;;;;4.68;100.00;99939.64;673542;1264;139473;-81
2023/11/17 05:39:57;;;;;;;29.90;14.40;;;;;;;4.71;100.00;99939.15;675041;1276;139003;-81
2023/11/17 05:55:35;;;;;;;75.30;30.30;;;;;;;4.67;100.00;99948.62;676404;1264;139761;-81
2023/11/17 06:11:12;;;;;;;34.50;17.90;;;;;;;4.68;100.00;99956.84;676490;1266;138899;-82
2023/11/17 06:26:52;;;;;;;34.80;15.90;;;;;;;4.69;100.00;99963.17;663490;1262;139667;-81
2023/11/17 06:42:29;;;;;;;82.80;39.20;;;;;;;4.65;100.00;99976.29;671986;1272;140812;-81
2023/11/17 06:58:06;;;;;;;68.00;27.90;;;;;;;4.65;100.00;99981.77;670165;1266;139329;-82
2023/11/17 07:13:45;;;;;;;71.60;26.30;;;;;;;4.72;100.00;100000.38;675160;1263;138869;-81
2023/11/17 07:29:23;;;;;;;109.20;44.60;;;;;;;4.71;100.00;100011.52;678619;1261;139748;-79
2023/11/17 07:45:02;;;;;;;59.70;23.80;;;;;;;4.70;100.00;100022.87;681658;1264;139999;-80
2023/11/17 08:00:39;;;;;;;108.10;35.60;;;;;;;4.79;100.00;100030.25;671900;1264;140326;-82
2023/11/17 08:16:17;;;;;;;30.10;14.90;;;;;;;4.90;100.00;100029.48;672788;1263;22217;-80
2023/11/17 08:31:54;;;;;;;38.40;16.20;;;;;;;4.92;99.97;100042.19;674807;1264;22320;-81
2023/11/17 08:47:33;;;;;;;74.10;28.00;;;;;;;5.14;99.86;100048.66;673463;1264;22318;-81
2023/11/17 09:03:10;;;;;;;68.90;25.60;;;;;;;5.18;99.41;100052.00;674596;1262;23235;-81
2023/11/17 09:18:47;;;;;;;50.20;17.00;;;;;;;5.45;99.17;100058.29;681385;1260;139582;-81
2023/11/17 09:34:39;;;;;;;42.80;20.70;;;;;;;5.61;99.40;100063.45;677917;1264;139438;-81
2023/11/17 09:50:26;;;;;;;132.70;52.30;;;;;;;5.58;98.58;100073.17;672955;1260;139003;-80
2023/11/17 10:06:24;;;;;;;328.70;135.70;;;;;;;5.87;98.52;100081.70;673510;1264;23039;-79
2023/11/17 10:22:00;;;;;;;51.60;26.50;;;;;;;6.06;98.00;100077.42;676761;1259;139785;-80
2023/11/17 10:37:40;;;;;;;84.60;29.70;;;;;;;5.96;97.50;100081.47;673768;1265;138735;-81
2023/11/17 10:53:40;;;;;;;56.80;23.60;;;;;;;5.80;96.16;100087.60;681801;1259;138682;-81
2023/11/17 11:09:18;;;;;;;383.80;139.50;;;;;;;5.68;95.29;100096.80;676088;1260;22125;-81
2023/11/17 11:24:55;;;;;;;60.70;24.10;;;;;;;5.64;95.52;100109.23;678879;1264;138735;-82
2023/11/17 11:40:33;;;;;;;43.40;22.20;;;;;;;5.63;95.22;100120.02;676181;1263;22577;-83
2023/11/17 12:14:07;;;;;;;57.10;27.00;;;;;;;5.57;95.97;100137.81;672838;1261;138648;-82
2023/11/17 12:29:44;;;;;;;25.10;14.50;;;;;;;5.36;95.79;100142.35;678175;1264;139599;-83
2023/11/17 12:45:21;;;;;;;28.00;14.10;;;;;;;5.42;96.69;100148.70;681494;1260;139273;-84
2023/11/17 13:00:58;;;;;;;26.90;14.10;;;;;;;5.48;96.98;100155.77;669640;1264;139247;-82
2023/11/17 13:16:35;;;;;;;26.20;14.60;;;;;;;5.67;97.06;100165.24;672182;1259;139124;-84
2023/11/17 13:32:12;;;;;;;70.30;35.40;;;;;;;5.52;96.47;100175.95;671201;1263;139151;-83
2023/11/17 13:47:49;;;;;;;62.50;28.00;;;;;;;5.36;96.53;100189.54;674437;1259;138955;-84
2023/11/17 14:03:28;;;;;;;96.00;39.20;;;;;;;5.19;97.82;100196.90;670344;1263;138716;-83
2023/11/17 14:19:05;;;;;;;48.40;22.90;;;;;;;5.23;98.22;100206.31;670749;1264;139884;-84
2023/11/17 14:34:43;;;;;;;61.00;26.80;;;;;;;4.96;98.18;100222.69;669765;1264;139296;-83
2023/11/17 14:50:20;;;;;;;83.20;36.70;;;;;;;4.86;98.44;100231.98;676613;1265;139166;-83
2023/11/17 15:05:50;;;;;;;85.10;34.70;;;;;;;4.82;98.73;100252.88;674558;1263;138884;-83
2023/11/17 15:21:43;;;;;;;40.40;17.60;;;;;;;4.86;98.93;100264.95;674308;1259;138598;-82
2023/11/17 15:47:48;;;;;;;68.70;33.00;;;;;;;4.89;99.06;100287.42;650479;1292;10138672;-83
2023/11/17 16:03:25;;;;;;;248.70;76.10;;;;;;;4.77;98.17;100306.05;669534;1273;138961;-82
2023/11/17 16:19:02;;;;;;;154.50;46.80;;;;;;;4.70;98.54;100323.81;664242;1277;139107;-83
2023/11/17 16:34:39;;;;;;;74.80;33.80;;;;;;;4.54;98.85;100334.49;667750;1274;139231;-82
2023/11/17 16:50:16;;;;;;;171.10;45.30;;;;;;;4.45;98.52;100351.46;665889;1275;139168;-81
2023/11/17 17:05:54;;;;;;;116.00;35.70;;;;;;;4.46;98.18;100359.54;668397;1275;140517;-83
2023/11/17 17:21:32;;;;;;;213.30;63.60;;;;;;;4.51;97.74;100375.40;669945;1272;138659;-82
2023/11/17 17:37:09;;;;;;;68.40;27.50;;;;;;;4.54;97.74;100387.35;668310;1270;138698;-81
2023/11/17 17:52:49;;;;;;;228.10;78.60;;;;;;;4.49;97.20;100404.42;672605;1271;139183;-83
2023/11/17 18:08:29;;;;;;;147.30;53.50;;;;;;;4.41;97.19;100413.20;670913;1267;139252;-83
2023/11/17 18:24:06;;;;;;;;;;;;;;;4.42;97.83;100425.63;672682;1278;139455;-83
2023/11/17 18:39:43;;;;;;;267.20;92.20;;;;;;;4.38;97.65;100444.58;674848;1264;125371;-83
2023/11/17 18:55:16;;;;;;;107.50;38.90;;;;;;;4.38;97.65;100462.23;672947;1267;139591;-82
2023/11/17 19:10:39;;;;;;;121.80;40.80;;;;;;;4.31;97.72;100469.60;673374;1262;139093;-83
2023/11/17 19:26:17;;;;;;;258.50;70.10;;;;;;;4.10;98.57;100479.94;676370;1263;142289;-84
2023/11/17 19:52:23;;;;;;;63.40;26.00;;;;;;;3.78;99.58;100494.54;654064;1288;10241161;-82
2023/11/17 20:08:00;;;;;;;115.20;45.20;;;;;;;3.74;100.00;100504.15;670950;1282;140263;-84
2023/11/17 20:23:36;;;;;;;62.60;28.90;;;;;;;3.96;100.00;100512.77;666483;1273;138903;-82
2023/11/17 20:39:21;;;;;;;159.90;58.30;;;;;;;4.16;100.00;100523.75;670135;1271;138410;-83
2023/11/17 20:54:59;;;;;;;88.20;35.50;;;;;;;3.99;100.00;100541.86;669401;1269;139386;-83
2023/11/17 21:10:37;;;;;;;117.50;44.00;;;;;;;4.07;100.00;100552.81;670303;1266;138417;-82
2023/11/17 21:26:14;;;;;;;108.40;44.20;;;;;;;4.52;99.82;100552.02;676302;1269;139529;-83
2023/11/17 21:41:50;;;;;;;83.10;33.50;;;;;;;4.61;99.30;100558.91;677542;1266;139470;-83
2023/11/17 21:57:28;;;;;;;163.30;61.50;;;;;;;4.77;98.71;100572.36;676793;1273;138617;-83
2023/11/17 22:13:08;;;;;;;108.00;44.70;;;;;;;4.73;98.85;100591.14;680775;1260;139722;-83
2023/11/17 22:28:45;;;;;;;49.30;21.10;;;;;;;4.42;99.60;100604.90;678533;1262;141870;-84
2023/11/17 22:44:22;;;;;;;43.50;19.00;;;;;;;4.41;99.98;100611.86;680841;1266;140110;-83
2023/11/17 22:59:59;;;;;;;28.20;13.70;;;;;;;4.60;99.11;100624.81;676306;1261;139049;-82
2023/11/17 23:15:36;;;;;;;85.00;31.90;;;;;;;4.59;98.58;100625.08;675751;1263;139791;-83
2023/11/17 23:31:13;;;;;;;24.30;12.00;;;;;;;4.35;99.54;100632.66;679687;1262;139763;-83
2023/11/17 23:46:50;;;;;;;51.00;20.20;;;;;;;4.58;99.22;100643.64;674349;1266;139370;-83
